createdAt,value
2022-12-18T00:00:07.531Z,-2.08
2022-12-18T00:00:43.069Z,-2.04
2022-12-18T00:01:23.425Z,-2.02
2022-12-18T00:01:59.457Z,-2.06
2022-12-18T00:02:31.087Z,-2.08
2022-12-18T00:03:02.708Z,-2.05
2022-12-18T00:03:35.022Z,-2.05
2022-12-18T00:04:16.146Z,-2.05
2022-12-18T00:04:47.953Z,-2.04
2022-12-18T00:05:19.542Z,-2.02
2022-12-18T00:05:52.463Z,-2.04
2022-12-18T00:06:25.446Z,-2.04
2022-12-18T00:06:57.165Z,-1.98
2022-12-18T00:07:28.711Z,-1.99
2022-12-18T00:08:00.314Z,-1.98
2022-12-18T00:08:33.573Z,-1.99
2022-12-18T00:09:05.168Z,-1.98
2022-12-18T00:09:39.742Z,-1.97
2022-12-18T00:10:12.136Z,-1.90
2022-12-18T00:10:47.293Z,-1.93
2022-12-18T00:11:21.524Z,-1.97
2022-12-18T00:11:53.152Z,-1.99
2022-12-18T00:12:24.697Z,-1.94
2022-12-18T00:12:56.295Z,-1.95
2022-12-18T00:13:28.486Z,-2.01
2022-12-18T00:14:01.004Z,-1.99
2022-12-18T00:14:32.546Z,-2.06
2022-12-18T00:15:04.554Z,-2.04
2022-12-18T00:15:37.510Z,-2.09
2022-12-18T00:16:12.596Z,-2.09
2022-12-18T00:16:46.174Z,-2.11
2022-12-18T00:17:18.167Z,-2.11
2022-12-18T00:17:49.751Z,-2.08
2022-12-18T00:18:21.358Z,-2.06
2022-12-18T00:18:54.639Z,-2.12
2022-12-18T00:19:26.214Z,-2.15
2022-12-18T00:19:57.783Z,-2.09
2022-12-18T00:20:29.735Z,-2.14
2022-12-18T00:21:02.939Z,-2.15
2022-12-18T00:21:35.168Z,-2.18
2022-12-18T00:22:07.528Z,-2.16
2022-12-18T00:22:39.121Z,-2.23
2022-12-18T00:23:10.665Z,-2.22
2022-12-18T00:23:44.319Z,-2.14
2022-12-18T00:24:15.875Z,-2.15
2022-12-18T00:24:47.473Z,-2.15
2022-12-18T00:25:19.203Z,-2.16
2022-12-18T00:25:50.756Z,-2.14
2022-12-18T00:26:30.663Z,-2.21
2022-12-18T00:27:02.224Z,-2.23
2022-12-18T00:27:33.799Z,-2.23
2022-12-18T00:28:05.652Z,-2.22
2022-12-18T00:28:37.230Z,-2.19
2022-12-18T00:29:12.584Z,-2.22
2022-12-18T00:29:44.147Z,-2.25
2022-12-18T00:30:15.769Z,-2.28
2022-12-18T00:30:47.403Z,-2.35
2022-12-18T00:31:22.554Z,-2.32
2022-12-18T00:31:54.205Z,-2.23
2022-12-18T00:32:25.872Z,-2.26
2022-12-18T00:32:58.645Z,-2.26
2022-12-18T00:33:30.954Z,-2.26
2022-12-18T00:34:02.780Z,-2.29
2022-12-18T00:34:34.368Z,-2.28
2022-12-18T00:35:07.080Z,-2.26
2022-12-18T00:35:38.668Z,-2.33
2022-12-18T00:36:16.119Z,-2.29
2022-12-18T00:36:48.872Z,-2.31
2022-12-18T00:37:20.602Z,-2.29
2022-12-18T00:37:52.264Z,-2.29
2022-12-18T00:38:23.791Z,-2.29
2022-12-18T00:38:57.042Z,-2.31
2022-12-18T00:39:28.642Z,-2.38
2022-12-18T00:40:00.222Z,-2.38
2022-12-18T00:40:31.783Z,-2.35
2022-12-18T00:41:04.252Z,-2.33
2022-12-18T00:41:54.269Z,-2.31
2022-12-18T00:42:44.277Z,-2.33
2022-12-18T00:43:15.841Z,-2.31
2022-12-18T00:43:47.377Z,-2.26
2022-12-18T00:44:19.752Z,-2.26
2022-12-18T00:44:51.332Z,-2.28
2022-12-18T00:45:28.108Z,-2.26
2022-12-18T00:45:59.739Z,-2.19
2022-12-18T00:46:31.944Z,-2.26
2022-12-18T00:47:03.488Z,-2.19
2022-12-18T00:47:35.057Z,-2.18
2022-12-18T00:48:06.604Z,-2.21
2022-12-18T00:48:38.161Z,-2.22
2022-12-18T00:49:10.487Z,-2.29
2022-12-18T00:49:42.059Z,-2.33
2022-12-18T00:50:13.713Z,-2.33
2022-12-18T00:50:45.762Z,-2.33
2022-12-18T00:51:17.335Z,-2.35
2022-12-18T00:51:49.161Z,-2.36
2022-12-18T00:52:20.766Z,-2.41
2022-12-18T00:52:52.419Z,-2.41
2022-12-18T00:53:24.109Z,-2.48
2022-12-18T00:53:55.747Z,-2.42
2022-12-18T00:54:27.321Z,-2.36
2022-12-18T00:55:03.127Z,-2.41
2022-12-18T00:55:40.985Z,-2.43
2022-12-18T00:56:12.732Z,-2.46
2022-12-18T00:56:48.657Z,-2.36
2022-12-18T00:57:20.613Z,-2.41
2022-12-18T00:57:53.416Z,-2.38
2022-12-18T00:58:25.078Z,-2.35
2022-12-18T00:58:56.661Z,-2.38
2022-12-18T00:59:28.229Z,-2.32
2022-12-18T00:59:59.795Z,-2.32
2022-12-18T01:00:31.327Z,-2.28
2022-12-18T01:01:05.576Z,-2.26
2022-12-18T01:01:37.243Z,-2.36
2022-12-18T01:02:09.107Z,-2.36
2022-12-18T01:02:41.742Z,-2.41
2022-12-18T01:03:15.280Z,-2.43
2022-12-18T01:03:47.707Z,-2.43
2022-12-18T01:04:19.306Z,-2.45
2022-12-18T01:04:51.225Z,-2.42
2022-12-18T01:05:22.979Z,-2.46
2022-12-18T01:05:54.511Z,-2.41
2022-12-18T01:06:26.116Z,-2.32
2022-12-18T01:06:57.810Z,-2.38
2022-12-18T01:07:29.429Z,-2.32
2022-12-18T01:08:01.086Z,-2.32
2022-12-18T01:08:32.657Z,-2.36
2022-12-18T01:09:04.491Z,-2.38
2022-12-18T01:09:36.137Z,-2.41
2022-12-18T01:10:09.107Z,-2.33
2022-12-18T01:10:43.422Z,-2.41
2022-12-18T01:11:18.435Z,-2.46
2022-12-18T01:11:50.029Z,-2.41
2022-12-18T01:12:21.614Z,-2.42
2022-12-18T01:12:53.355Z,-2.42
2022-12-18T01:13:24.944Z,-2.43
2022-12-18T01:13:56.532Z,-2.42
2022-12-18T01:14:28.138Z,-2.46
2022-12-18T01:14:59.726Z,-2.53
2022-12-18T01:15:31.299Z,-2.50
2022-12-18T01:16:03.113Z,-2.53
2022-12-18T01:16:34.760Z,-2.53
2022-12-18T01:17:06.398Z,-2.52
2022-12-18T01:17:38.054Z,-2.56
2022-12-18T01:18:09.638Z,-2.53
2022-12-18T01:18:41.445Z,-2.54
2022-12-18T01:19:13.501Z,-2.52
2022-12-18T01:19:45.127Z,-2.54
2022-12-18T01:20:16.843Z,-2.52
2022-12-18T01:20:48.419Z,-2.52
2022-12-18T01:21:20.033Z,-2.48
2022-12-18T01:21:51.572Z,-2.45
2022-12-18T01:22:23.213Z,-2.39
2022-12-18T01:22:54.756Z,-2.39
2022-12-18T01:23:26.318Z,-2.36
2022-12-18T01:23:58.188Z,-2.42
2022-12-18T01:24:29.840Z,-2.48
2022-12-18T01:25:01.571Z,-2.42
2022-12-18T01:25:33.149Z,-2.45
2022-12-18T01:26:16.274Z,-2.48
2022-12-18T01:26:48.030Z,-2.45
2022-12-18T01:27:19.598Z,-2.43
2022-12-18T01:27:51.194Z,-2.53
2022-12-18T01:28:22.755Z,-2.46
2022-12-18T01:28:55.620Z,-2.45
2022-12-18T01:29:27.218Z,-2.45
2022-12-18T01:29:58.788Z,-2.49
2022-12-18T01:30:30.330Z,-2.57
2022-12-18T01:31:40.501Z,-2.46
2022-12-18T01:32:12.186Z,-2.45
2022-12-18T01:32:44.071Z,-2.43
2022-12-18T01:33:15.652Z,-2.49
2022-12-18T01:33:51.311Z,-2.49
2022-12-18T01:34:24.354Z,-2.49
2022-12-18T01:34:55.894Z,-2.49
2022-12-18T01:35:27.457Z,-2.53
2022-12-18T01:35:58.999Z,-2.57
2022-12-18T01:36:33.165Z,-2.59
2022-12-18T01:37:06.383Z,-2.59
2022-12-18T01:37:37.952Z,-2.67
2022-12-18T01:38:09.924Z,-2.64
2022-12-18T01:38:41.537Z,-2.57
2022-12-18T01:39:14.774Z,-2.59
2022-12-18T01:39:46.341Z,-2.73
2022-12-18T01:40:18.014Z,-2.64
2022-12-18T01:40:49.574Z,-2.60
2022-12-18T01:41:26.488Z,-2.57
2022-12-18T01:42:05.399Z,-2.62
2022-12-18T01:42:37.069Z,-2.62
2022-12-18T01:43:10.284Z,-2.62
2022-12-18T01:44:00.464Z,-2.56
2022-12-18T01:44:53.802Z,-2.49
2022-12-18T01:45:28.537Z,-2.48
2022-12-18T01:46:00.965Z,-2.46
2022-12-18T01:46:32.634Z,-2.42
2022-12-18T01:47:04.313Z,-2.43
2022-12-18T01:47:41.473Z,-2.46
2022-12-18T01:48:13.032Z,-2.46
2022-12-18T01:48:47.543Z,-2.56
2022-12-18T01:49:19.123Z,-2.52
2022-12-18T01:49:51.823Z,-2.49
2022-12-18T01:50:33.753Z,-2.48
2022-12-18T01:51:05.918Z,-2.52
2022-12-18T01:51:37.550Z,-2.56
2022-12-18T01:52:09.358Z,-2.52
2022-12-18T01:52:43.813Z,-2.49
2022-12-18T01:53:18.860Z,-2.52
2022-12-18T01:53:50.723Z,-2.56
2022-12-18T01:54:22.275Z,-2.53
2022-12-18T01:54:54.300Z,-2.53
2022-12-18T01:55:30.256Z,-2.54
2022-12-18T01:56:02.169Z,-2.53
2022-12-18T01:56:33.830Z,-2.53
2022-12-18T01:57:05.477Z,-2.50
2022-12-18T01:57:37.927Z,-2.50
2022-12-18T01:58:09.726Z,-2.49
2022-12-18T01:58:58.989Z,-2.52
2022-12-18T01:59:33.682Z,-2.42
2022-12-18T02:00:11.089Z,-2.48
2022-12-18T02:01:24.819Z,-2.53
2022-12-18T02:01:57.471Z,-2.53
2022-12-18T02:02:31.230Z,-2.50
2022-12-18T02:03:02.975Z,-2.48
2022-12-18T02:03:34.665Z,-2.45
2022-12-18T02:04:26.444Z,-2.36
2022-12-18T02:04:58.125Z,-2.35
2022-12-18T02:06:01.925Z,-2.36
2022-12-18T02:06:39.829Z,-2.39
2022-12-18T02:07:26.292Z,-2.46
2022-12-18T02:08:38.797Z,-2.54
2022-12-18T02:09:20.492Z,-2.56
2022-12-18T02:09:56.666Z,-2.56
2022-12-18T02:10:54.270Z,-2.62
2022-12-18T02:11:47.141Z,-2.62
2022-12-18T02:12:24.889Z,-2.62
2022-12-18T02:13:08.408Z,-2.57
2022-12-18T02:14:09.525Z,-2.56
2022-12-18T02:14:48.157Z,-2.57
2022-12-18T02:15:30.859Z,-2.56
2022-12-18T02:16:17.491Z,-2.57
2022-12-18T02:17:07.538Z,-2.59
2022-12-18T02:17:53.235Z,-2.60
2022-12-18T02:18:34.581Z,-2.67
2022-12-18T02:19:48.097Z,-2.73
2022-12-18T02:20:22.775Z,-2.64
2022-12-18T02:21:01.213Z,-2.67
2022-12-18T02:21:46.353Z,-2.69
2022-12-18T02:22:41.658Z,-2.70
2022-12-18T02:23:24.791Z,-2.66
2022-12-18T02:23:59.053Z,-2.67
2022-12-18T02:24:42.405Z,-2.74
2022-12-18T02:25:25.731Z,-2.64
2022-12-18T02:26:09.971Z,-2.62
2022-12-18T02:26:54.401Z,-2.70
2022-12-18T02:27:26.798Z,-2.67
2022-12-18T02:28:02.925Z,-2.66
2022-12-18T02:28:43.712Z,-2.70
2022-12-18T02:29:19.089Z,-2.73
2022-12-18T02:29:58.830Z,-2.70
2022-12-18T02:30:35.051Z,-2.69
2022-12-18T02:31:11.672Z,-2.72
2022-12-18T02:31:53.614Z,-2.76
2022-12-18T02:32:31.308Z,-2.80
2022-12-18T02:33:05.295Z,-2.74
2022-12-18T02:33:39.651Z,-2.69
2022-12-18T02:34:12.954Z,-2.69
2022-12-18T02:34:45.879Z,-2.69
2022-12-18T02:35:30.481Z,-2.70
2022-12-18T02:36:02.986Z,-2.73
2022-12-18T02:36:37.355Z,-2.70
2022-12-18T02:37:13.936Z,-2.67
2022-12-18T02:37:47.666Z,-2.69
2022-12-18T02:38:19.307Z,-2.73
2022-12-18T02:38:53.171Z,-2.72
2022-12-18T02:39:26.779Z,-2.72
2022-12-18T02:40:00.163Z,-2.69
2022-12-18T02:40:32.818Z,-2.67
2022-12-18T02:41:05.180Z,-2.73
2022-12-18T02:41:37.835Z,-2.72
2022-12-18T02:42:09.981Z,-2.69
2022-12-18T02:42:41.605Z,-2.64
2022-12-18T02:43:16.266Z,-2.67
2022-12-18T02:43:56.656Z,-2.67
2022-12-18T02:44:28.355Z,-2.72
2022-12-18T02:45:00.017Z,-2.67
2022-12-18T02:45:32.272Z,-2.70
2022-12-18T02:46:32.814Z,-2.80
2022-12-18T02:47:04.731Z,-2.77
2022-12-18T02:47:40.408Z,-2.77
2022-12-18T02:48:12.021Z,-2.76
2022-12-18T02:48:44.061Z,-2.76
2022-12-18T02:49:21.226Z,-2.80
2022-12-18T02:49:58.637Z,-2.73
2022-12-18T02:50:39.305Z,-2.72
2022-12-18T02:51:33.034Z,-2.70
2022-12-18T02:52:20.847Z,-2.69
2022-12-18T02:53:25.287Z,-2.69
2022-12-18T02:54:10.695Z,-2.79
2022-12-18T02:55:00.351Z,-2.81
2022-12-18T02:55:58.618Z,-2.79
2022-12-18T02:56:36.968Z,-2.93
2022-12-18T02:57:15.483Z,-2.90
2022-12-18T02:57:53.609Z,-2.83
2022-12-18T02:58:55.549Z,-2.85
2022-12-18T02:59:39.933Z,-2.88
2022-12-18T03:00:16.439Z,-2.83
2022-12-18T03:01:04.664Z,-2.80
2022-12-18T03:01:55.126Z,-2.90
2022-12-18T03:02:36.444Z,-2.93
2022-12-18T03:03:17.386Z,-2.88
2022-12-18T03:03:56.632Z,-2.87
2022-12-18T03:04:38.210Z,-2.91
2022-12-18T03:05:24.975Z,-2.94
2022-12-18T03:06:19.728Z,-2.98
2022-12-18T03:06:55.834Z,-2.94
2022-12-18T03:07:37.993Z,-3.01
2022-12-18T03:08:09.517Z,-2.94
2022-12-18T03:08:46.141Z,-2.91
2022-12-18T03:09:22.988Z,-2.94
2022-12-18T03:09:56.249Z,-2.91
2022-12-18T03:10:32.029Z,-2.88
2022-12-18T03:11:06.915Z,-2.93
2022-12-18T03:12:01.523Z,-2.91
2022-12-18T03:12:38.113Z,-2.90
2022-12-18T03:13:15.146Z,-2.91
2022-12-18T03:13:57.154Z,-2.91
2022-12-18T03:14:32.880Z,-2.94
2022-12-18T03:15:17.396Z,-2.91
2022-12-18T03:15:52.371Z,-2.88
2022-12-18T03:16:29.452Z,-2.88
2022-12-18T03:17:04.196Z,-2.88
2022-12-18T03:17:39.519Z,-2.83
2022-12-18T03:18:22.961Z,-2.93
2022-12-18T03:19:02.026Z,-2.87
2022-12-18T03:19:35.282Z,-2.94
2022-12-18T03:20:13.330Z,-2.91
2022-12-18T03:20:47.180Z,-2.88
2022-12-18T03:21:23.322Z,-2.93
2022-12-18T03:21:57.553Z,-2.94
2022-12-18T03:22:31.798Z,-2.93
2022-12-18T03:23:14.029Z,-3.04
2022-12-18T03:23:50.364Z,-3.04
2022-12-18T03:24:23.574Z,-3.00
2022-12-18T03:24:58.032Z,-3.00
2022-12-18T03:25:32.742Z,-3.05
2022-12-18T03:26:10.370Z,-2.97
2022-12-18T03:26:46.569Z,-2.94
2022-12-18T03:27:21.867Z,-2.95
2022-12-18T03:27:58.863Z,-3.05
2022-12-18T03:28:36.371Z,-3.11
2022-12-18T03:29:14.113Z,-3.08
2022-12-18T03:29:52.779Z,-3.05
2022-12-18T03:30:25.138Z,-3.01
2022-12-18T03:30:59.341Z,-3.05
2022-12-18T03:31:35.727Z,-3.02
2022-12-18T03:32:11.822Z,-3.04
2022-12-18T03:33:15.742Z,-2.95
2022-12-18T03:33:53.313Z,-3.14
2022-12-18T03:34:31.606Z,-3.14
2022-12-18T03:35:05.947Z,-3.05
2022-12-18T03:35:42.111Z,-3.01
2022-12-18T03:36:13.874Z,-3.02
2022-12-18T03:36:45.427Z,-3.09
2022-12-18T03:37:17.036Z,-3.08
2022-12-18T03:37:48.702Z,-3.09
2022-12-18T03:38:20.514Z,-3.00
2022-12-18T03:38:52.358Z,-2.94
2022-12-18T03:39:25.060Z,-2.91
2022-12-18T03:39:56.613Z,-2.95
2022-12-18T03:40:36.336Z,-2.94
2022-12-18T03:41:10.830Z,-2.90
2022-12-18T03:41:48.208Z,-2.85
2022-12-18T03:42:40.716Z,-2.88
2022-12-18T03:43:26.396Z,-2.91
2022-12-18T03:44:11.978Z,-2.90
2022-12-18T03:44:59.148Z,-2.84
2022-12-18T03:45:38.457Z,-2.87
2022-12-18T03:46:25.822Z,-2.94
2022-12-18T03:47:13.133Z,-2.97
2022-12-18T03:48:22.862Z,-3.00
2022-12-18T03:49:07.536Z,-3.07
2022-12-18T03:49:55.105Z,-3.02
2022-12-18T03:50:31.045Z,-3.02
2022-12-18T03:51:22.148Z,-3.07
2022-12-18T03:52:07.406Z,-3.04
2022-12-18T03:53:09.635Z,-3.14
2022-12-18T03:53:58.857Z,-3.09
2022-12-18T03:54:32.506Z,-3.05
2022-12-18T03:55:06.120Z,-3.12
2022-12-18T03:55:39.186Z,-3.12
2022-12-18T03:56:12.446Z,-3.16
2022-12-18T03:56:50.779Z,-3.11
2022-12-18T03:57:26.111Z,-3.07
2022-12-18T03:57:59.723Z,-3.08
2022-12-18T03:58:34.211Z,-3.11
2022-12-18T03:59:07.050Z,-3.05
2022-12-18T03:59:39.599Z,-3.12
2022-12-18T04:00:16.455Z,-3.09
2022-12-18T04:00:49.732Z,-3.14
2022-12-18T04:01:25.551Z,-3.16
2022-12-18T04:01:59.955Z,-3.14
2022-12-18T04:02:33.458Z,-3.19
2022-12-18T04:03:05.939Z,-3.21
2022-12-18T04:03:39.253Z,-3.24
2022-12-18T04:04:13.874Z,-3.27
2022-12-18T04:04:48.746Z,-3.28
2022-12-18T04:05:21.316Z,-3.31
2022-12-18T04:05:55.219Z,-3.31
2022-12-18T04:06:28.435Z,-3.31
2022-12-18T04:07:00.554Z,-3.27
2022-12-18T04:07:33.174Z,-3.22
2022-12-18T04:08:06.098Z,-3.25
2022-12-18T04:08:37.933Z,-3.25
2022-12-18T04:09:09.674Z,-3.31
2022-12-18T04:09:43.438Z,-3.27
2022-12-18T04:10:17.306Z,-3.32
2022-12-18T04:10:48.988Z,-3.31
2022-12-18T04:11:20.723Z,-3.25
2022-12-18T04:11:52.989Z,-3.15
2022-12-18T04:12:29.615Z,-3.14
2022-12-18T04:13:01.226Z,-3.14
2022-12-18T04:13:38.396Z,-3.16
2022-12-18T04:14:14.432Z,-3.18
2022-12-18T04:14:49.045Z,-3.18
2022-12-18T04:15:20.677Z,-3.22
2022-12-18T04:15:52.504Z,-3.27
2022-12-18T04:16:25.336Z,-3.25
2022-12-18T04:16:56.942Z,-3.27
2022-12-18T04:17:28.529Z,-3.32
2022-12-18T04:18:00.079Z,-3.32
2022-12-18T04:18:32.007Z,-3.32
2022-12-18T04:19:04.247Z,-3.25
2022-12-18T04:19:36.081Z,-3.28
2022-12-18T04:20:08.043Z,-3.36
2022-12-18T04:20:39.615Z,-3.28
2022-12-18T04:21:11.537Z,-3.28
2022-12-18T04:21:43.137Z,-3.25
2022-12-18T04:22:14.837Z,-3.31
2022-12-18T04:22:46.742Z,-3.31
2022-12-18T04:23:18.286Z,-3.35
2022-12-18T04:23:50.016Z,-3.39
2022-12-18T04:24:21.686Z,-3.32
2022-12-18T04:24:53.231Z,-3.36
2022-12-18T04:25:24.803Z,-3.32
2022-12-18T04:25:56.409Z,-3.25
2022-12-18T04:26:27.970Z,-3.34
2022-12-18T04:26:59.531Z,-3.36
2022-12-18T04:27:31.141Z,-3.39
2022-12-18T04:28:02.725Z,-3.43
2022-12-18T04:28:34.274Z,-3.49
2022-12-18T04:29:05.874Z,-3.46
2022-12-18T04:29:37.419Z,-3.43
2022-12-18T04:30:09.575Z,-3.42
2022-12-18T04:30:41.366Z,-3.35
2022-12-18T04:31:13.869Z,-3.43
2022-12-18T04:31:45.487Z,-3.43
2022-12-18T04:32:17.067Z,-3.41
2022-12-18T04:32:52.215Z,-3.48
2022-12-18T04:33:24.092Z,-3.51
2022-12-18T04:33:55.629Z,-3.51
2022-12-18T04:34:27.156Z,-3.49
2022-12-18T04:34:58.767Z,-3.53
2022-12-18T04:35:30.313Z,-3.51
2022-12-18T04:36:02.030Z,-3.45
2022-12-18T04:36:33.581Z,-3.43
2022-12-18T04:37:05.365Z,-3.52
2022-12-18T04:37:37.005Z,-3.49
2022-12-18T04:38:09.523Z,-3.49
2022-12-18T04:38:41.162Z,-3.48
2022-12-18T04:39:12.830Z,-3.49
2022-12-18T04:39:44.381Z,-3.51
2022-12-18T04:40:15.990Z,-3.49
2022-12-18T04:40:47.538Z,-3.49
2022-12-18T04:41:19.160Z,-3.45
2022-12-18T04:41:50.781Z,-3.36
2022-12-18T04:42:22.459Z,-3.38
2022-12-18T04:42:54.061Z,-3.45
2022-12-18T04:43:25.820Z,-3.49
2022-12-18T04:43:57.460Z,-3.45
2022-12-18T04:44:29.054Z,-3.53
2022-12-18T04:45:00.647Z,-3.51
2022-12-18T04:45:32.920Z,-3.46
2022-12-18T04:46:09.125Z,-3.45
2022-12-18T04:46:40.850Z,-3.46
2022-12-18T04:47:12.462Z,-3.42
2022-12-18T04:47:44.065Z,-3.42
2022-12-18T04:48:15.684Z,-3.42
2022-12-18T04:48:47.950Z,-3.48
2022-12-18T04:49:19.520Z,-3.52
2022-12-18T04:49:51.053Z,-3.56
2022-12-18T04:50:22.626Z,-3.56
2022-12-18T04:50:54.188Z,-3.48
2022-12-18T04:51:26.824Z,-3.48
2022-12-18T04:51:58.591Z,-3.53
2022-12-18T04:52:30.166Z,-3.51
2022-12-18T04:53:02.054Z,-3.58
2022-12-18T04:53:34.014Z,-3.60
2022-12-18T04:54:05.820Z,-3.60
2022-12-18T04:54:37.371Z,-3.58
2022-12-18T04:55:09.078Z,-3.51
2022-12-18T04:55:40.660Z,-3.52
2022-12-18T04:56:15.478Z,-3.52
2022-12-18T04:56:47.058Z,-3.49
2022-12-18T04:57:21.703Z,-3.58
2022-12-18T04:57:53.870Z,-3.52
2022-12-18T04:58:25.446Z,-3.48
2022-12-18T04:58:56.968Z,-3.46
2022-12-18T04:59:28.637Z,-3.51
2022-12-18T05:00:00.212Z,-3.52
2022-12-18T05:00:31.771Z,-3.55
2022-12-18T05:01:03.658Z,-3.48
2022-12-18T05:01:35.458Z,-3.55
2022-12-18T05:02:07.216Z,-3.53
2022-12-18T05:02:38.895Z,-3.58
2022-12-18T05:03:10.535Z,-3.53
2022-12-18T05:03:42.481Z,-3.56
2022-12-18T05:04:14.544Z,-3.52
2022-12-18T05:04:46.098Z,-3.53
2022-12-18T05:05:17.850Z,-3.51
2022-12-18T05:05:52.574Z,-3.52
2022-12-18T05:06:24.204Z,-3.59
2022-12-18T05:06:55.766Z,-3.59
2022-12-18T05:07:27.274Z,-3.64
2022-12-18T05:07:58.841Z,-3.59
2022-12-18T05:08:30.577Z,-3.64
2022-12-18T05:09:02.203Z,-3.67
2022-12-18T05:09:33.744Z,-3.63
2022-12-18T05:10:05.806Z,-3.67
2022-12-18T05:10:38.489Z,-3.66
2022-12-18T05:11:13.325Z,-3.62
2022-12-18T05:11:44.878Z,-3.58
2022-12-18T05:12:17.922Z,-3.60
2022-12-18T05:13:01.573Z,-3.56
2022-12-18T05:13:34.225Z,-3.58
2022-12-18T05:14:05.820Z,-3.60
2022-12-18T05:14:37.383Z,-3.64
2022-12-18T05:15:09.419Z,-3.64
2022-12-18T05:15:42.894Z,-3.62
2022-12-18T05:16:15.699Z,-3.64
2022-12-18T05:16:47.334Z,-3.56
2022-12-18T05:17:18.908Z,-3.59
2022-12-18T05:17:50.463Z,-3.60
2022-12-18T05:18:23.242Z,-3.53
2022-12-18T05:18:54.826Z,-3.51
2022-12-18T05:19:26.399Z,-3.56
2022-12-18T05:19:58.126Z,-3.59
2022-12-18T05:20:29.782Z,-3.62
2022-12-18T05:21:01.478Z,-3.58
2022-12-18T05:21:33.186Z,-3.59
2022-12-18T05:22:04.950Z,-3.53
2022-12-18T05:22:36.497Z,-3.58
2022-12-18T05:23:08.089Z,-3.59
2022-12-18T05:23:39.908Z,-3.60
2022-12-18T05:24:11.931Z,-3.58
2022-12-18T05:24:43.586Z,-3.58
2022-12-18T05:25:16.056Z,-3.55
2022-12-18T05:25:56.324Z,-3.56
2022-12-18T05:26:27.901Z,-3.56
2022-12-18T05:26:59.565Z,-3.56
2022-12-18T05:27:31.131Z,-3.59
2022-12-18T05:28:02.697Z,-3.62
2022-12-18T05:28:36.266Z,-3.63
2022-12-18T05:29:07.806Z,-3.69
2022-12-18T05:29:39.478Z,-3.64
2022-12-18T05:30:11.662Z,-3.60
2022-12-18T05:30:43.216Z,-3.58
2022-12-18T05:31:15.330Z,-3.55
2022-12-18T05:31:46.967Z,-3.60
2022-12-18T05:32:18.659Z,-3.56
2022-12-18T05:32:50.263Z,-3.53
2022-12-18T05:33:24.108Z,-3.56
2022-12-18T05:33:55.871Z,-3.52
2022-12-18T05:34:27.466Z,-3.55
2022-12-18T05:34:59.015Z,-3.49
2022-12-18T05:35:32.289Z,-3.56
2022-12-18T05:36:06.621Z,-3.63
2022-12-18T05:36:38.173Z,-3.60
2022-12-18T05:37:09.750Z,-3.60
2022-12-18T05:37:43.376Z,-3.58
2022-12-18T05:38:15.193Z,-3.60
2022-12-18T05:38:46.892Z,-3.58
2022-12-18T05:39:18.500Z,-3.58
2022-12-18T05:39:50.075Z,-3.60
2022-12-18T05:40:21.696Z,-3.63
2022-12-18T05:40:54.555Z,-3.67
2022-12-18T05:41:26.142Z,-3.63
2022-12-18T05:41:57.690Z,-3.64
2022-12-18T05:42:29.274Z,-3.63
2022-12-18T05:43:00.810Z,-3.67
2022-12-18T05:43:34.919Z,-3.69
2022-12-18T05:44:06.499Z,-3.64
2022-12-18T05:44:38.069Z,-3.60
2022-12-18T05:45:10.111Z,-3.63
2022-12-18T05:45:42.379Z,-3.63
2022-12-18T05:46:16.410Z,-3.63
2022-12-18T05:46:48.026Z,-3.58
2022-12-18T05:47:19.696Z,-3.53
2022-12-18T05:47:51.496Z,-3.51
2022-12-18T05:48:23.391Z,-3.56
2022-12-18T05:48:55.055Z,-3.58
2022-12-18T05:49:26.750Z,-3.63
2022-12-18T05:49:58.374Z,-3.59
2022-12-18T05:50:29.956Z,-3.62
2022-12-18T05:51:08.790Z,-3.60
2022-12-18T05:51:40.390Z,-3.56
2022-12-18T05:52:13.511Z,-3.63
2022-12-18T05:52:45.087Z,-3.67
2022-12-18T05:53:18.588Z,-3.63
2022-12-18T05:53:50.298Z,-3.67
2022-12-18T05:54:21.873Z,-3.67
2022-12-18T05:54:53.433Z,-3.66
2022-12-18T05:55:24.969Z,-3.56
2022-12-18T05:56:01.473Z,-3.56
2022-12-18T05:56:33.014Z,-3.52
2022-12-18T05:57:04.714Z,-3.51
2022-12-18T05:57:36.270Z,-3.51
2022-12-18T05:58:09.602Z,-3.51
2022-12-18T05:58:41.318Z,-3.58
2022-12-18T05:59:12.892Z,-3.63
2022-12-18T05:59:44.551Z,-3.64
2022-12-18T06:00:16.841Z,-3.74
2022-12-18T06:00:48.512Z,-3.70
2022-12-18T06:01:23.695Z,-3.79
2022-12-18T06:01:55.354Z,-3.76
2022-12-18T06:02:27.185Z,-3.76
2022-12-18T06:03:00.220Z,-3.82
2022-12-18T06:03:34.033Z,-3.73
2022-12-18T06:04:05.893Z,-3.73
2022-12-18T06:04:38.296Z,-3.77
2022-12-18T06:05:10.164Z,-3.83
2022-12-18T06:05:44.710Z,-3.77
2022-12-18T06:06:23.248Z,-3.79
2022-12-18T06:06:54.799Z,-3.74
2022-12-18T06:07:26.396Z,-3.79
2022-12-18T06:07:57.994Z,-3.77
2022-12-18T06:08:29.662Z,-3.72
2022-12-18T06:09:02.390Z,-3.67
2022-12-18T06:09:34.175Z,-3.77
2022-12-18T06:10:06.560Z,-3.80
2022-12-18T06:10:38.478Z,-3.76
2022-12-18T06:11:10.034Z,-3.74
2022-12-18T06:11:41.612Z,-3.82
2022-12-18T06:12:13.172Z,-3.80
2022-12-18T06:12:44.774Z,-3.83
2022-12-18T06:13:16.338Z,-3.77
2022-12-18T06:13:54.765Z,-3.80
2022-12-18T06:14:29.807Z,-3.77
2022-12-18T06:15:01.680Z,-3.77
2022-12-18T06:15:33.954Z,-3.74
2022-12-18T06:16:06.944Z,-3.79
2022-12-18T06:16:38.607Z,-3.80
2022-12-18T06:17:10.199Z,-3.79
2022-12-18T06:17:41.739Z,-3.83
2022-12-18T06:18:13.517Z,-3.84
2022-12-18T06:18:45.119Z,-3.84
2022-12-18T06:19:17.907Z,-3.89
2022-12-18T06:19:49.482Z,-3.87
2022-12-18T06:20:21.382Z,-3.89
2022-12-18T06:20:59.894Z,-3.97
2022-12-18T06:21:32.427Z,-3.94
2022-12-18T06:22:05.236Z,-4.05
2022-12-18T06:22:36.784Z,-4.05
2022-12-18T06:23:08.799Z,-4.07
2022-12-18T06:23:40.831Z,-4.22
2022-12-18T06:24:12.638Z,-4.18
2022-12-18T06:24:44.213Z,-4.21
2022-12-18T06:25:16.337Z,-4.21
2022-12-18T06:25:47.928Z,-4.19
2022-12-18T06:26:24.658Z,-4.11
2022-12-18T06:26:59.314Z,-4.11
2022-12-18T06:27:30.967Z,-4.14
2022-12-18T06:28:02.631Z,-4.11
2022-12-18T06:28:34.385Z,-4.03
2022-12-18T06:29:06.440Z,-4.01
2022-12-18T06:29:38.084Z,-4.01
2022-12-18T06:30:10.476Z,-4.00
2022-12-18T06:30:45.184Z,-3.94
2022-12-18T06:31:16.905Z,-3.94
2022-12-18T06:31:48.617Z,-3.94
2022-12-18T06:32:20.269Z,-3.91
2022-12-18T06:32:56.568Z,-3.95
2022-12-18T06:33:31.792Z,-4.03
2022-12-18T06:34:05.184Z,-3.98
2022-12-18T06:34:38.919Z,-4.04
2022-12-18T06:35:10.524Z,-4.18
2022-12-18T06:35:42.616Z,-4.10
2022-12-18T06:36:14.916Z,-4.08
2022-12-18T06:36:46.562Z,-4.04
2022-12-18T06:37:18.498Z,-4.03
2022-12-18T06:37:50.188Z,-4.05
2022-12-18T06:38:22.450Z,-3.98
2022-12-18T06:38:54.011Z,-4.05
2022-12-18T06:39:28.242Z,-4.07
2022-12-18T06:40:00.213Z,-4.07
2022-12-18T06:40:31.757Z,-4.01
2022-12-18T06:41:14.723Z,-4.04
2022-12-18T06:41:46.330Z,-4.08
2022-12-18T06:42:17.946Z,-4.05
2022-12-18T06:42:49.517Z,-4.03
2022-12-18T06:43:21.247Z,-3.94
2022-12-18T06:43:56.854Z,-3.97
2022-12-18T06:44:31.035Z,-4.04
2022-12-18T06:45:02.615Z,-4.00
2022-12-18T06:45:34.391Z,-3.98
2022-12-18T06:46:07.005Z,-3.95
2022-12-18T06:46:39.044Z,-3.91
2022-12-18T06:47:10.757Z,-4.00
2022-12-18T06:47:42.426Z,-3.91
2022-12-18T06:48:14.030Z,-3.94
2022-12-18T06:48:49.067Z,-3.97
2022-12-18T06:49:20.666Z,-3.86
2022-12-18T06:49:52.250Z,-3.89
2022-12-18T06:50:23.830Z,-3.94
2022-12-18T06:50:55.494Z,-3.90
2022-12-18T06:51:27.220Z,-3.83
2022-12-18T06:51:59.010Z,-3.77
2022-12-18T06:52:33.001Z,-3.74
2022-12-18T06:53:04.573Z,-3.83
2022-12-18T06:53:36.638Z,-3.84
2022-12-18T06:54:08.723Z,-3.84
2022-12-18T06:54:40.264Z,-3.82
2022-12-18T06:55:12.623Z,-3.79
2022-12-18T06:55:44.303Z,-3.76
2022-12-18T06:56:15.950Z,-3.86
2022-12-18T06:56:47.631Z,-3.83
2022-12-18T06:57:19.182Z,-3.72
2022-12-18T06:57:50.785Z,-3.80
2022-12-18T06:58:22.321Z,-3.72
2022-12-18T06:58:54.085Z,-3.76
2022-12-18T06:59:25.645Z,-3.84
2022-12-18T06:59:57.813Z,-3.76
2022-12-18T07:00:29.397Z,-3.80
2022-12-18T07:01:06.381Z,-3.74
2022-12-18T07:01:38.152Z,-3.77
2022-12-18T07:02:13.519Z,-3.80
2022-12-18T07:02:45.258Z,-3.82
2022-12-18T07:03:16.848Z,-3.87
2022-12-18T07:03:52.237Z,-3.84
2022-12-18T07:04:28.982Z,-3.80
2022-12-18T07:05:02.751Z,-3.72
2022-12-18T07:05:41.278Z,-3.62
2022-12-18T07:06:18.122Z,-3.60
2022-12-18T07:06:49.732Z,-3.53
2022-12-18T07:07:21.288Z,-3.46
2022-12-18T07:07:53.372Z,-3.60
2022-12-18T07:08:25.266Z,-3.59
2022-12-18T07:08:56.954Z,-3.62
2022-12-18T07:09:31.228Z,-3.62
2022-12-18T07:10:02.997Z,-3.63
2022-12-18T07:10:34.594Z,-3.62
2022-12-18T07:11:06.286Z,-3.60
2022-12-18T07:11:37.847Z,-3.56
2022-12-18T07:12:10.434Z,-3.49
2022-12-18T07:12:42.164Z,-3.63
2022-12-18T07:13:13.729Z,-3.60
2022-12-18T07:13:46.871Z,-3.60
2022-12-18T07:14:18.494Z,-3.62
2022-12-18T07:14:50.098Z,-3.66
2022-12-18T07:15:21.690Z,-3.59
2022-12-18T07:15:53.370Z,-3.53
2022-12-18T07:16:25.996Z,-3.56
2022-12-18T07:16:57.826Z,-3.55
2022-12-18T07:17:30.526Z,-3.53
2022-12-18T07:18:02.151Z,-3.56
2022-12-18T07:18:33.740Z,-3.58
2022-12-18T07:19:05.430Z,-3.56
2022-12-18T07:19:37.047Z,-3.56
2022-12-18T07:20:09.444Z,-3.56
2022-12-18T07:20:41.018Z,-3.59
2022-12-18T07:21:15.533Z,-3.58
2022-12-18T07:21:47.089Z,-3.62
2022-12-18T07:22:19.264Z,-3.52
2022-12-18T07:22:56.035Z,-3.41
2022-12-18T07:23:27.822Z,-3.39